createdAt,value
2016-12-17T00:00:54.264Z,1.36
2016-12-17T00:02:04.589Z,1.38
2016-12-17T00:03:14.905Z,1.3
2016-12-17T00:04:24.908Z,1.3
2016-12-17T00:05:34.628Z,1.3
2016-12-17T00:06:44.628Z,1.26
2016-12-17T00:07:54.954Z,1.24
2016-12-17T00:09:05.006Z,1.29
2016-12-17T00:10:15.345Z,1.32
2016-12-17T00:11:24.742Z,1.18
2016-12-17T00:12:34.777Z,1.28
2016-12-17T00:13:45.107Z,1.32
2016-12-17T00:14:55.436Z,1.33
2016-12-17T00:16:05.453Z,1.3
2016-12-17T00:17:15.471Z,1.21
2016-12-17T00:18:25.496Z,1.22
2016-12-17T00:19:35.813Z,1.35
2016-12-17T00:20:45.831Z,1.26
2016-12-17T00:21:55.527Z,1.22
2016-12-17T00:23:05.544Z,1.21
2016-12-17T00:24:14.944Z,1.22
2016-12-17T00:25:24.653Z,1.22
2016-12-17T00:26:34.682Z,1.24
2016-12-17T00:27:45.016Z,1.24
2016-12-17T00:28:54.722Z,1.22
2016-12-17T00:30:05.050Z,1.24
2016-12-17T00:31:15.389Z,1.17
2016-12-17T00:32:25.088Z,1.26
2016-12-17T00:33:34.465Z,1.21
2016-12-17T00:34:44.802Z,1.17
2016-12-17T00:35:55.141Z,1.22
2016-12-17T00:37:04.533Z,1.22
2016-12-17T00:38:14.544Z,1.17
2016-12-17T00:39:24.872Z,1.18
2016-12-17T00:40:35.195Z,1.2
2016-12-17T00:41:45.511Z,1.17
2016-12-17T00:42:55.830Z,1.22
2016-12-17T00:44:06.159Z,1.18
2016-12-17T00:45:16.485Z,1.17
2016-12-17T00:46:26.502Z,1.14
2016-12-17T00:47:36.211Z,1.15
2016-12-17T00:48:46.527Z,1.11
2016-12-17T00:49:56.861Z,1.11
2016-12-17T00:51:06.870Z,1.15
2016-12-17T00:52:17.229Z,1
2016-12-17T00:53:27.243Z,0.99
2016-12-17T00:54:37.245Z,1
2016-12-17T00:55:47.261Z,1.15
2016-12-17T00:56:57.584Z,1.15
2016-12-17T00:58:07.584Z,1.14
2016-12-17T00:59:17.282Z,1.1
2016-12-17T01:00:27.302Z,1.08
2016-12-17T01:01:37.630Z,1.08
2016-12-17T01:02:47.625Z,1.14
2016-12-17T01:03:57.940Z,1.24
2016-12-17T01:05:07.946Z,1.22
2016-12-17T01:06:18.257Z,1.2
2016-12-17T01:07:27.957Z,1.18
2016-12-17T01:08:37.974Z,1.28
2016-12-17T01:09:47.986Z,1.21
2016-12-17T01:10:58.012Z,1.24
2016-12-17T01:12:08.339Z,1.2
2016-12-17T01:13:18.345Z,1.33
2016-12-17T01:14:28.660Z,1.21
2016-12-17T01:15:38.984Z,1.22
2016-12-17T01:16:49.000Z,1.26
2016-12-17T01:17:59.322Z,1.21
2016-12-17T01:19:09.336Z,1.18
2016-12-17T01:20:19.660Z,1.21
2016-12-17T01:21:30.006Z,1.2
2016-12-17T01:22:40.324Z,1.24
2016-12-17T01:23:50.352Z,1.22
2016-12-17T01:25:00.395Z,1.18
2016-12-17T01:26:10.093Z,1.18
2016-12-17T01:27:19.801Z,1.21
2016-12-17T01:28:29.827Z,1.2
2016-12-17T01:29:40.157Z,1.15
2016-12-17T01:30:50.515Z,1.21
2016-12-17T01:32:00.888Z,1.22
2016-12-17T01:33:11.208Z,1.18
2016-12-17T01:34:21.259Z,1.2
2016-12-17T01:35:30.966Z,1.18
2016-12-17T01:36:40.977Z,1.22
2016-12-17T01:37:50.684Z,1.2
2016-12-17T01:39:01.010Z,1.15
2016-12-17T01:40:11.037Z,1.11
2016-12-17T01:41:21.054Z,1.17
2016-12-17T01:42:31.060Z,1.15
2016-12-17T01:43:41.389Z,1.2
2016-12-17T01:44:51.713Z,1.22
2016-12-17T01:46:02.035Z,1.11
2016-12-17T01:47:12.043Z,1.11
2016-12-17T01:48:22.378Z,1.03
2016-12-17T01:49:32.705Z,1.02
2016-12-17T01:50:43.025Z,1.12
2016-12-17T01:51:53.026Z,1.02
2016-12-17T01:53:03.340Z,1.02
2016-12-17T01:54:13.331Z,1
2016-12-17T01:55:23.664Z,1.03
2016-12-17T01:56:33.368Z,1.04
2016-12-17T01:57:43.692Z,1.07
2016-12-17T01:58:54.028Z,0.99
2016-12-17T02:00:04.365Z,1.02
2016-12-17T02:01:14.704Z,1.03
2016-12-17T02:02:24.705Z,1.04
2016-12-17T02:03:35.044Z,1.02
2016-12-17T02:04:45.054Z,0.99
2016-12-17T02:05:54.459Z,0.93
2016-12-17T02:07:04.465Z,0.9
2016-12-17T02:08:14.807Z,0.94
2016-12-17T02:09:25.133Z,0.89
2016-12-17T02:10:35.172Z,0.9
2016-12-17T02:11:45.497Z,0.89
2016-12-17T02:12:55.515Z,0.9
2016-12-17T02:14:05.212Z,0.89
2016-12-17T02:15:15.202Z,0.9
2016-12-17T02:16:25.223Z,0.86
2016-12-17T02:17:35.240Z,0.82
2016-12-17T02:18:44.937Z,0.89
2016-12-17T02:19:54.938Z,0.84
2016-12-17T02:21:04.950Z,0.81
2016-12-17T02:22:15.318Z,0.89
2016-12-17T02:23:25.644Z,0.85
2016-12-17T02:24:35.652Z,0.92
2016-12-17T02:25:45.967Z,0.84
2016-12-17T02:26:56.291Z,0.82
2016-12-17T02:28:06.614Z,0.85
2016-12-17T02:29:16.932Z,0.84
2016-12-17T02:30:27.253Z,0.86
2016-12-17T02:31:37.580Z,0.79
2016-12-17T02:32:47.282Z,0.92
2016-12-17T02:33:57.602Z,0.79
2016-12-17T02:35:07.915Z,0.85
2016-12-17T02:36:18.248Z,0.84
2016-12-17T02:37:28.258Z,0.79
2016-12-17T02:38:38.276Z,0.82
2016-12-17T02:39:47.966Z,0.79
2016-12-17T02:40:57.977Z,0.79
2016-12-17T02:42:08.301Z,0.75
2016-12-17T02:43:18.691Z,0.78
2016-12-17T02:44:29.003Z,0.75
2016-12-17T02:45:39.316Z,0.79
2016-12-17T02:46:49.635Z,0.66
2016-12-17T02:47:59.638Z,0.72
2016-12-17T02:49:09.968Z,0.63
2016-12-17T02:50:20.294Z,0.66
2016-12-17T02:51:30.638Z,0.63
2016-12-17T02:52:40.639Z,0.64
2016-12-17T02:53:50.645Z,0.58
2016-12-17T02:55:00.648Z,0.61
2016-12-17T02:56:10.673Z,0.56
2016-12-17T02:57:20.992Z,0.63
2016-12-17T02:58:30.377Z,0.69
2016-12-17T02:59:40.686Z,0.61
2016-12-17T03:00:50.075Z,0.58
2016-12-17T03:32:57.714Z,-3.57
2016-12-17T03:34:08.013Z,-3.61
2016-12-17T03:35:18.020Z,-3.6
2016-12-17T03:36:28.333Z,-3.6
2016-12-17T03:37:38.640Z,-3.39
2016-12-17T03:38:48.336Z,-3.29
2016-12-17T03:39:58.662Z,-3.17
2016-12-17T03:41:08.986Z,-2.97
2016-12-17T03:42:19.296Z,-2.82
2016-12-17T03:43:29.622Z,-2.75
2016-12-17T03:44:39.961Z,-2.44
2016-12-17T03:45:50.293Z,-2.24
2016-12-17T03:47:00.302Z,-2.06
2016-12-17T03:48:10.300Z,-1.94
2016-12-17T03:49:20.298Z,-1.84
2016-12-17T03:50:29.998Z,-1.61
2016-12-17T03:51:40.312Z,-1.58
2016-12-17T03:52:50.642Z,-1.35
2016-12-17T03:54:00.648Z,-1.28
2016-12-17T03:55:10.661Z,-1.25
2016-12-17T03:56:20.972Z,-1.11
2016-12-17T03:57:31.284Z,-1.01
2016-12-17T03:58:40.680Z,-0.95
2016-12-17T03:59:50.370Z,-0.82
2016-12-17T04:01:00.374Z,-0.69
2016-12-17T04:02:10.394Z,-0.67
2016-12-17T04:03:20.422Z,-0.62
2016-12-17T04:04:30.424Z,-0.43
2016-12-17T04:05:40.130Z,-0.41
2016-12-17T04:06:50.138Z,-0.45
2016-12-17T04:08:00.448Z,-0.41
2016-12-17T04:09:10.471Z,-0.31
2016-12-17T04:10:20.482Z,-0.37
2016-12-17T04:11:30.495Z,-0.23
2016-12-17T04:12:40.807Z,-0.25
2016-12-17T04:13:50.804Z,-0.22
2016-12-17T04:15:01.129Z,-0.16
2016-12-17T04:16:10.513Z,-0.18
2016-12-17T04:17:20.872Z,-0.23
2016-12-17T04:18:31.184Z,-0.05
2016-12-17T04:19:41.514Z,-0.12
2016-12-17T04:20:51.867Z,-0.07
2016-12-17T04:22:02.195Z,0.01
2016-12-17T04:23:12.514Z,0.01
2016-12-17T04:24:22.853Z,0.02
2016-12-17T04:25:32.862Z,0.01
2016-12-17T04:26:43.168Z,0.08
2016-12-17T04:27:53.178Z,0.08
2016-12-17T04:29:02.880Z,0.02
2016-12-17T04:30:12.898Z,0.05
2016-12-17T04:31:23.224Z,0.08
2016-12-17T04:32:33.240Z,0.08
2016-12-17T04:33:43.564Z,0.13
2016-12-17T04:34:53.593Z,0.16
2016-12-17T04:36:03.305Z,0.16
2016-12-17T04:37:13.347Z,0.16
2016-12-17T04:38:23.674Z,0.13
2016-12-17T04:39:34.001Z,0.24
2016-12-17T04:40:44.344Z,0.17
2016-12-17T04:41:54.669Z,0.27
2016-12-17T04:43:04.675Z,0.24
2016-12-17T04:44:14.987Z,0.28
2016-12-17T04:45:25.300Z,0.26
2016-12-17T04:46:35.616Z,0.28
2016-12-17T04:47:45.638Z,0.34
2016-12-17T04:48:55.959Z,0.42
2016-12-17T04:50:06.276Z,0.41
2016-12-17T04:51:16.279Z,0.44
2016-12-17T04:52:26.606Z,0.5
2016-12-17T04:53:36.926Z,0.57
2016-12-17T04:54:46.304Z,0.63
2016-12-17T04:55:56.312Z,0.56
2016-12-17T04:57:06.631Z,0.75
2016-12-17T04:58:16.643Z,0.69
2016-12-17T04:59:26.650Z,0.74
2016-12-17T05:00:36.986Z,0.84
2016-12-17T05:01:46.375Z,0.82
2016-12-17T05:02:56.697Z,0.89
2016-12-17T05:04:07.032Z,0.92
2016-12-17T05:05:17.355Z,0.97
2016-12-17T05:06:27.665Z,1.03
2016-12-17T05:07:37.692Z,1.04
2016-12-17T05:08:48.028Z,1.11
2016-12-17T05:09:58.028Z,1.14
2016-12-17T05:11:08.043Z,1.22
2016-12-17T05:12:18.046Z,1.21
2016-12-17T05:13:28.048Z,1.21
2016-12-17T05:14:38.079Z,1.32
2016-12-17T05:15:48.093Z,1.32
2016-12-17T05:16:58.114Z,1.36
2016-12-17T05:18:08.423Z,1.46
2016-12-17T05:19:18.729Z,1.56
2016-12-17T05:20:28.430Z,1.47
2016-12-17T05:21:38.117Z,1.5
2016-12-17T05:22:48.125Z,1.53
2016-12-17T05:23:57.502Z,1.65
2016-12-17T05:25:07.837Z,1.65
2016-12-17T05:26:17.849Z,1.72
2016-12-17T05:27:28.192Z,1.72
2016-12-17T05:28:38.558Z,1.71
2016-12-17T05:29:48.256Z,1.86
2016-12-17T05:30:58.311Z,1.79
2016-12-17T05:32:08.629Z,1.76
2016-12-17T05:33:18.949Z,1.74
2016-12-17T05:34:29.257Z,1.79
2016-12-17T05:35:39.284Z,1.86
2016-12-17T05:36:49.340Z,1.84
2016-12-17T05:37:59.661Z,1.89
2016-12-17T05:39:09.977Z,1.94
2016-12-17T05:40:20.290Z,2.04
2016-12-17T05:41:30.306Z,2.01
2016-12-17T05:42:40.009Z,2.09
2016-12-17T05:43:50.330Z,2.13
2016-12-17T05:45:00.675Z,2.16
2016-12-17T05:46:11.004Z,2.15
2016-12-17T05:47:21.357Z,2.2
2016-12-17T05:48:31.677Z,2.23
2016-12-17T05:49:41.994Z,2.06
2016-12-17T05:50:52.321Z,2.11
2016-12-17T05:52:02.328Z,2.18
2016-12-17T05:53:12.054Z,2.18
2016-12-17T05:54:22.061Z,2.11
2016-12-17T05:55:32.058Z,2.16
2016-12-17T05:56:42.412Z,2.2
2016-12-17T05:57:52.722Z,2.22
2016-12-17T05:59:03.032Z,2.22
2016-12-17T06:00:13.056Z,2.15
2016-12-17T06:01:23.063Z,2.13
2016-12-17T06:02:33.378Z,2.18
2016-12-17T06:03:43.699Z,2.2
2016-12-17T06:04:53.708Z,2.15
2016-12-17T06:06:04.035Z,2.2
2016-12-17T06:07:14.360Z,2.22
2016-12-17T06:08:24.381Z,2.22
2016-12-17T06:09:34.704Z,2.29
2016-12-17T06:10:44.414Z,2.33
2016-12-17T06:11:54.418Z,2.29
2016-12-17T06:13:04.749Z,2.3
2016-12-17T06:14:15.070Z,2.3
2016-12-17T06:15:25.382Z,2.3
2016-12-17T06:16:35.708Z,2.36
2016-12-17T06:17:45.711Z,2.34
2016-12-17T06:18:56.024Z,2.31
2016-12-17T06:20:06.049Z,2.34
2016-12-17T06:21:16.371Z,2.3
2016-12-17T06:22:26.728Z,2.29
2016-12-17T06:23:37.039Z,2.31
2016-12-17T06:24:47.384Z,2.31
2016-12-17T06:25:57.391Z,2.3
2016-12-17T06:27:06.774Z,2.34
2016-12-17T06:28:16.518Z,2.38
2016-12-17T06:29:26.843Z,2.4
2016-12-17T06:30:36.853Z,2.38
2016-12-17T06:31:46.865Z,2.44
2016-12-17T06:32:57.193Z,2.45
2016-12-17T06:34:07.214Z,2.45
2016-12-17T06:35:17.538Z,2.44
2016-12-17T06:36:27.864Z,2.48
2016-12-17T06:37:37.905Z,2.49
2016-12-17T06:38:48.242Z,2.51
2016-12-17T06:39:58.561Z,2.45
2016-12-17T06:41:08.582Z,2.49
2016-12-17T06:42:18.911Z,2.58
2016-12-17T06:43:28.617Z,2.55
2016-12-17T06:44:38.624Z,2.55
2016-12-17T06:45:48.627Z,2.47
2016-12-17T06:46:58.627Z,2.51
2016-12-17T06:48:08.652Z,2.54
2016-12-17T06:49:18.656Z,2.51
2016-12-17T06:50:28.365Z,2.52
2016-12-17T06:51:38.379Z,2.48
2016-12-17T06:52:48.706Z,2.49
2016-12-17T06:53:59.068Z,2.45
2016-12-17T06:55:08.789Z,2.45
2016-12-17T06:56:19.131Z,2.47
2016-12-17T06:57:29.457Z,2.49
2016-12-17T06:58:39.760Z,2.55
2016-12-17T06:59:49.801Z,2.48
2016-12-17T07:00:59.492Z,2.58
2016-12-17T07:02:09.845Z,2.63
2016-12-17T07:03:19.901Z,2.58
2016-12-17T07:04:30.224Z,2.52
2016-12-17T07:05:40.550Z,2.47
2016-12-17T07:06:50.882Z,2.54
2016-12-17T07:08:00.896Z,2.58
2016-12-17T07:09:10.931Z,2.6
2016-12-17T07:10:21.277Z,2.62
2016-12-17T07:11:31.620Z,2.59
2016-12-17T07:12:41.930Z,2.66
2016-12-17T07:13:52.259Z,2.65
2016-12-17T07:15:02.279Z,2.59
2016-12-17T07:16:12.325Z,2.6
2016-12-17T07:17:22.032Z,2.52
2016-12-17T07:18:32.039Z,2.55
2016-12-17T07:19:42.376Z,2.55
2016-12-17T07:20:52.388Z,2.66
2016-12-17T07:22:02.725Z,2.55
2016-12-17T07:23:12.736Z,2.67
2016-12-17T07:24:22.423Z,2.6
2016-12-17T07:25:32.763Z,2.73
2016-12-17T07:26:43.117Z,2.73
2016-12-17T07:27:53.439Z,2.76
2016-12-17T07:29:03.758Z,2.73
2016-12-17T07:30:13.458Z,2.72
2016-12-17T07:31:23.173Z,2.7
2016-12-17T07:32:33.515Z,2.67
2016-12-17T07:33:43.838Z,2.7
2016-12-17T07:34:54.160Z,2.69
2016-12-17T07:36:04.490Z,2.73
2016-12-17T07:37:14.198Z,2.7
2016-12-17T07:38:24.205Z,2.73
2016-12-17T07:39:34.529Z,2.72
2016-12-17T07:40:44.863Z,2.76
2016-12-17T07:41:54.882Z,2.67
2016-12-17T07:43:04.586Z,2.78
2016-12-17T07:44:14.300Z,2.83
2016-12-17T07:45:24.322Z,2.73
2016-12-17T07:46:34.400Z,2.77
2016-12-17T07:47:44.722Z,2.77
2016-12-17T07:48:54.438Z,2.76
2016-12-17T07:50:04.143Z,2.77
2016-12-17T07:51:13.887Z,2.72
2016-12-17T07:52:24.213Z,2.69
2016-12-17T07:53:34.535Z,2.62
2016-12-17T07:54:44.538Z,2.65
2016-12-17T07:55:54.547Z,2.69
2016-12-17T07:57:04.866Z,2.72
2016-12-17T07:58:14.885Z,2.65
2016-12-17T07:59:24.896Z,2.67
2016-12-17T08:00:35.216Z,2.67
2016-12-17T08:01:45.225Z,2.7
2016-12-17T08:02:55.268Z,2.62
2016-12-17T08:04:05.278Z,2.55
2016-12-17T08:05:15.613Z,2.65
2016-12-17T08:06:25.935Z,2.69
2016-12-17T08:07:36.261Z,2.7
2016-12-17T08:08:46.590Z,2.7
2016-12-17T08:09:56.911Z,2.7
2016-12-17T08:11:07.231Z,2.77
2016-12-17T08:12:17.547Z,2.8
2016-12-17T08:13:27.258Z,2.7
2016-12-17T08:14:36.971Z,2.77
2016-12-17T08:15:46.685Z,2.77
2016-12-17T08:16:57.011Z,2.83
2016-12-17T08:18:07.351Z,2.73
2016-12-17T08:19:17.682Z,2.8
2016-12-17T08:20:27.729Z,2.72
2016-12-17T08:21:37.756Z,2.73
2016-12-17T08:22:47.459Z,2.73
2016-12-17T08:23:57.459Z,2.8
2016-12-17T08:25:07.780Z,2.81
2016-12-17T08:26:18.107Z,2.88
2016-12-17T08:27:28.444Z,2.91
2016-12-17T08:28:38.145Z,2.87
2016-12-17T08:29:48.477Z,2.9
2016-12-17T08:30:58.184Z,2.91
2016-12-17T08:32:08.520Z,3.03
2016-12-17T08:33:18.219Z,3.16
2016-12-17T08:34:28.227Z,3.14
2016-12-17T08:35:38.552Z,3.13
2016-12-17T08:36:48.873Z,3.2
2016-12-17T08:37:58.894Z,3.24
2016-12-17T08:39:09.231Z,3.26
2016-12-17T08:40:19.554Z,3.39
2016-12-17T08:41:29.896Z,3.23
2016-12-17T08:42:39.902Z,3.35
2016-12-17T08:43:49.933Z,3.37
2016-12-17T08:44:59.960Z,3.42
2016-12-17T08:46:09.661Z,3.45
2016-12-17T08:47:19.683Z,3.48
2016-12-17T08:48:30.016Z,3.35
2016-12-17T08:49:40.327Z,3.46
2016-12-17T08:50:50.645Z,3.53
2016-12-17T08:52:00.677Z,3.48
2016-12-17T08:53:10.383Z,3.37
2016-12-17T08:54:20.404Z,3.45
2016-12-17T08:55:30.776Z,3.37
2016-12-17T08:56:41.097Z,3.39
2016-12-17T08:57:50.810Z,3.4
2016-12-17T08:59:01.141Z,3.39
2016-12-17T09:00:11.202Z,3.42
2016-12-17T09:01:21.569Z,3.45
2016-12-17T09:02:31.927Z,3.39
2016-12-17T09:03:42.266Z,3.42
2016-12-17T09:04:51.667Z,3.43
2016-12-17T09:06:01.089Z,3.51
2016-12-17T09:07:11.108Z,3.43
2016-12-17T09:08:20.513Z,3.54
2016-12-17T09:09:30.875Z,3.51
2016-12-17T09:10:41.198Z,3.58
2016-12-17T09:11:50.918Z,3.67
2016-12-17T09:13:01.250Z,3.75
2016-12-17T09:14:11.270Z,3.75
2016-12-17T09:15:21.588Z,3.69
2016-12-17T09:16:31.614Z,3.75
2016-12-17T09:17:41.953Z,3.9
2016-12-17T09:18:52.283Z,3.9
2016-12-17T09:20:01.990Z,3.75
2016-12-17T09:21:12.332Z,3.81
2016-12-17T09:22:22.410Z,3.76
2016-12-17T09:23:32.745Z,3.78
2016-12-17T09:24:42.450Z,3.69
2016-12-17T09:25:52.474Z,3.78
2016-12-17T09:27:02.801Z,3.78
2016-12-17T09:28:12.827Z,3.92
2016-12-17T09:29:23.158Z,3.92
2016-12-17T09:30:33.485Z,3.82
2016-12-17T09:31:43.503Z,3.9
2016-12-17T09:32:53.203Z,3.82
2016-12-17T09:34:03.217Z,3.86
2016-12-17T09:35:13.237Z,3.89
2016-12-17T09:36:23.555Z,3.96
2016-12-17T09:37:33.876Z,3.96
2016-12-17T09:38:43.908Z,3.99
2016-12-17T09:39:53.940Z,3.93
2016-12-17T09:41:03.960Z,3.93
2016-12-17T09:42:13.681Z,3.96
2016-12-17T09:43:24.004Z,4.03
2016-12-17T09:44:34.047Z,3.96
2016-12-17T09:45:44.379Z,3.94
2016-12-17T09:46:54.714Z,3.94
2016-12-17T09:48:04.722Z,3.97
2016-12-17T09:49:14.458Z,3.97
2016-12-17T09:50:24.154Z,4.12
2016-12-17T09:51:34.166Z,4.08
2016-12-17T09:52:43.887Z,4.24
2016-12-17T09:53:54.206Z,4.12
2016-12-17T09:55:04.221Z,4.2
2016-12-17T09:56:14.563Z,4.17
2016-12-17T09:57:24.601Z,4.12
2016-12-17T09:58:34.931Z,4.2
2016-12-17T09:59:45.002Z,4.3
2016-12-17T10:00:55.329Z,4.2
2016-12-17T10:02:05.662Z,4.2
2016-12-17T10:03:16.213Z,4.21
2016-12-17T10:04:26.534Z,4.2
2016-12-17T10:05:36.891Z,4.21
2016-12-17T10:06:47.208Z,4.24
2016-12-17T10:07:57.535Z,4.11
2016-12-17T10:09:07.257Z,4.29
2016-12-17T10:10:16.973Z,4.33
2016-12-17T10:11:26.993Z,4.39
2016-12-17T10:12:36.997Z,4.36
2016-12-17T10:13:46.704Z,4.53
2016-12-17T10:14:57.034Z,4.68
2016-12-17T10:16:07.053Z,4.71
2016-12-17T10:17:17.379Z,4.76
2016-12-17T10:18:27.090Z,4.88
2016-12-17T10:19:37.097Z,4.94
2016-12-17T10:20:46.798Z,5.03
2016-12-17T10:21:56.825Z,5.06
2016-12-17T10:23:07.177Z,5.03
2016-12-17T10:24:17.511Z,5.1
2016-12-17T10:25:27.830Z,5.09
2016-12-17T10:26:37.837Z,5.12
2016-12-17T10:27:48.154Z,5.08
2016-12-17T10:28:58.173Z,5.1
2016-12-17T10:30:08.192Z,5.13
2016-12-17T10:31:18.204Z,5.3
2016-12-17T10:32:27.944Z,5.23
2016-12-17T10:33:38.276Z,5.27
2016-12-17T10:34:47.679Z,5.09
2016-12-17T10:35:57.725Z,5.12
2016-12-17T10:37:08.052Z,5.03
2016-12-17T10:38:18.375Z,5.05
2016-12-17T10:39:28.387Z,4.95
2016-12-17T10:40:38.398Z,5.03
2016-12-17T10:41:48.728Z,5.03
2016-12-17T10:42:58.751Z,4.9
2016-12-17T10:44:09.078Z,5
2016-12-17T10:45:19.119Z,4.88
2016-12-17T10:46:29.151Z,4.98
2016-12-17T10:47:38.866Z,4.94
2016-12-17T10:48:48.882Z,4.94
2016-12-17T10:49:58.276Z,5.09
2016-12-17T10:51:08.597Z,5
2016-12-17T10:52:18.925Z,5.09
2016-12-17T10:53:29.250Z,5.15
2016-12-17T10:54:39.278Z,5.1
2016-12-17T10:55:49.606Z,5.03
2016-12-17T10:56:59.942Z,4.97
2016-12-17T10:58:10.300Z,5
2016-12-17T10:59:20.314Z,5.05
2016-12-17T11:00:29.701Z,5.02
2016-12-17T11:01:40.034Z,5.05
2016-12-17T11:02:50.049Z,5.05
2016-12-17T11:04:00.373Z,5.1
2016-12-17T11:05:10.386Z,5.08
2016-12-17T11:06:20.390Z,5.18
2016-12-17T11:07:30.711Z,5.1
2016-12-17T11:08:40.723Z,5.13
2016-12-17T11:09:51.039Z,5.15
2016-12-17T11:11:01.064Z,5.13
2016-12-17T11:12:11.067Z,5.16
2016-12-17T11:13:21.391Z,5.16
2016-12-17T11:14:31.418Z,5.26
2016-12-17T11:15:41.424Z,5.26
2016-12-17T11:16:51.749Z,5.37
2016-12-17T11:18:02.072Z,5.39
2016-12-17T11:19:12.399Z,5.34
2016-12-17T11:20:21.789Z,5.34
2016-12-17T11:21:31.787Z,5.37
2016-12-17T11:22:41.789Z,5.34
2016-12-17T11:23:51.833Z,5.28
2016-12-17T11:25:01.848Z,5.37
2016-12-17T11:26:11.877Z,5.36
2016-12-17T11:27:22.215Z,5.37
2016-12-17T11:28:32.528Z,5.37
2016-12-17T11:29:42.850Z,5.33
2016-12-17T11:30:53.195Z,5.27
2016-12-17T11:32:02.592Z,5.41
2016-12-17T11:33:12.290Z,5.36
2016-12-17T11:34:22.619Z,5.33
2016-12-17T11:35:32.332Z,5.37
2016-12-17T11:36:42.661Z,5.33
2016-12-17T11:37:52.687Z,5.46
2016-12-17T11:39:02.086Z,5.49
2016-12-17T11:40:12.418Z,5.45
2016-12-17T11:41:22.745Z,5.57
2016-12-17T11:42:32.787Z,5.6
2016-12-17T11:43:43.114Z,5.62
2016-12-17T11:44:53.454Z,5.59
2016-12-17T11:46:03.772Z,5.6
2016-12-17T11:47:14.103Z,5.6
2016-12-17T11:48:24.134Z,5.69
2016-12-17T11:49:34.488Z,5.64
2016-12-17T11:50:44.523Z,5.69
2016-12-17T11:51:54.230Z,5.63
2016-12-17T11:53:04.237Z,5.7
2016-12-17T11:54:14.556Z,5.62
2016-12-17T11:55:24.277Z,5.52
2016-12-17T11:56:34.278Z,5.63
2016-12-17T11:57:44.599Z,5.55
2016-12-17T11:58:54.941Z,5.64
2016-12-17T12:00:05.004Z,5.63
2016-12-17T12:01:15.079Z,5.54
2016-12-17T12:02:24.506Z,5.49
2016-12-17T12:03:34.828Z,5.42
2016-12-17T12:04:45.159Z,5.46
2016-12-17T12:05:55.177Z,5.41
2016-12-17T12:07:05.559Z,5.39
2016-12-17T12:08:15.870Z,5.36
2016-12-17T12:09:25.886Z,5.41
2016-12-17T12:10:35.898Z,5.42
2016-12-17T12:11:45.918Z,5.36
2016-12-17T12:12:55.934Z,5.31
2016-12-17T12:14:05.968Z,5.26
2016-12-17T12:15:16.017Z,5.13
2016-12-17T12:16:26.050Z,5.18
2016-12-17T12:17:36.384Z,5.1
2016-12-17T12:18:46.095Z,5.1
2016-12-17T12:19:56.442Z,5.06
2016-12-17T12:21:06.773Z,4.98
2016-12-17T12:22:16.783Z,5.1
2016-12-17T12:23:27.117Z,5.02
2016-12-17T12:24:37.173Z,5.09
2016-12-17T12:25:47.518Z,5.09
2016-12-17T12:26:57.859Z,5
2016-12-17T12:28:07.915Z,4.91
2016-12-17T12:29:17.959Z,4.92
2016-12-17T12:30:28.300Z,4.83
2016-12-17T12:31:38.633Z,4.88
2016-12-17T12:32:48.979Z,4.85
2016-12-17T12:33:58.701Z,4.83
2016-12-17T12:35:08.417Z,4.9
2016-12-17T12:36:18.158Z,4.83
2016-12-17T12:37:28.212Z,4.78
2016-12-17T12:38:38.239Z,4.76
2016-12-17T12:39:48.575Z,4.79
2016-12-17T12:40:58.901Z,4.75
2016-12-17T12:42:08.981Z,4.71
2016-12-17T12:43:19.317Z,4.83
2016-12-17T12:44:29.660Z,4.75
2016-12-17T12:45:39.708Z,4.76
2016-12-17T12:46:50.060Z,4.69
2016-12-17T12:48:00.092Z,4.68
2016-12-17T12:49:10.458Z,4.76
2016-12-17T12:50:20.808Z,4.72
2016-12-17T12:51:31.174Z,4.75
2016-12-17T12:52:41.556Z,4.75
2016-12-17T12:53:51.878Z,4.76
2016-12-17T12:55:02.212Z,4.79
2016-12-17T12:56:12.247Z,4.76
2016-12-17T12:57:21.988Z,4.84
2016-12-17T12:58:32.325Z,4.85
2016-12-17T12:59:42.676Z,4.76
2016-12-17T13:00:53.029Z,4.79
2016-12-17T13:02:02.747Z,4.85
2016-12-17T13:03:12.776Z,4.79
2016-12-17T13:04:22.797Z,4.85
2016-12-17T13:05:32.804Z,4.87
2016-12-17T13:06:43.170Z,4.92
2016-12-17T13:07:53.730Z,4.88
2016-12-17T13:09:03.132Z,4.9
2016-12-17T13:10:13.458Z,4.88
2016-12-17T13:11:23.485Z,4.91
2016-12-17T13:12:33.510Z,5
2016-12-17T13:13:43.527Z,4.94
2016-12-17T13:14:53.550Z,4.85
2016-12-17T13:16:03.910Z,4.88
2016-12-17T13:17:14.252Z,4.85
2016-12-17T13:18:23.965Z,4.84
2016-12-17T13:19:34.031Z,4.83
2016-12-17T13:20:44.376Z,4.85
2016-12-17T13:21:54.714Z,4.88
2016-12-17T13:23:05.080Z,4.84
2016-12-17T13:24:15.131Z,4.91
2016-12-17T13:25:25.449Z,4.79
2016-12-17T13:26:35.496Z,4.88
2016-12-17T13:27:45.846Z,4.87
2016-12-17T13:28:55.559Z,4.87
2016-12-17T13:30:05.302Z,4.79
2016-12-17T13:31:15.028Z,4.78
2016-12-17T13:32:25.077Z,4.83
2016-12-17T13:33:35.424Z,4.69
2016-12-17T13:34:45.365Z,4.74
2016-12-17T13:35:55.748Z,4.74
2016-12-17T13:37:05.490Z,4.68
2016-12-17T13:38:15.829Z,4.78
2016-12-17T13:39:25.891Z,4.72
2016-12-17T13:40:36.240Z,4.74
2016-12-17T13:41:45.953Z,4.78
2016-12-17T13:42:56.012Z,4.78
2016-12-17T13:44:05.756Z,4.79
2016-12-17T13:45:16.095Z,4.85
2016-12-17T13:46:26.454Z,4.9
2016-12-17T13:47:36.521Z,4.79
2016-12-17T13:48:46.871Z,4.95
2016-12-17T13:49:57.234Z,4.94
2016-12-17T13:51:07.331Z,4.95
2016-12-17T13:52:17.691Z,4.94
2016-12-17T13:53:28.048Z,4.79
2016-12-17T13:54:38.100Z,4.87
2016-12-17T13:55:48.180Z,4.79
2016-12-17T13:56:58.576Z,4.78
2016-12-17T13:58:08.946Z,4.83
2016-12-17T13:59:19.301Z,4.72
2016-12-17T14:00:29.653Z,4.83
2016-12-17T14:01:40.040Z,4.75
2016-12-17T14:02:49.761Z,4.68
2016-12-17T14:04:00.215Z,4.74
2016-12-17T14:05:10.575Z,4.76
2016-12-17T14:06:20.911Z,4.74
2016-12-17T14:07:30.629Z,4.83
2016-12-17T14:08:40.685Z,4.75
2016-12-17T14:09:50.397Z,4.72
2016-12-17T14:11:00.143Z,4.74
2016-12-17T14:12:10.528Z,4.66
2016-12-17T14:13:20.576Z,4.64
2016-12-17T14:14:30.603Z,4.71
2016-12-17T14:15:40.372Z,4.64
2016-12-17T14:16:50.113Z,4.72
2016-12-17T14:17:59.865Z,4.65
2016-12-17T14:19:09.926Z,4.65
2016-12-17T14:20:20.287Z,4.68
2016-12-17T14:21:30.308Z,4.57
2016-12-17T14:22:40.089Z,4.65
2016-12-17T14:23:50.423Z,4.54
2016-12-17T14:25:00.782Z,4.48
2016-12-17T14:26:11.156Z,4.53
2016-12-17T14:27:21.637Z,4.5
2016-12-17T14:28:31.981Z,4.47
2016-12-17T14:29:41.743Z,4.5
2016-12-17T14:30:51.795Z,4.44
2016-12-17T14:32:01.829Z,4.48
2016-12-17T14:33:11.867Z,4.47
2016-12-17T14:34:21.918Z,4.46
2016-12-17T14:35:32.272Z,4.47
2016-12-17T14:36:42.606Z,4.48
2016-12-17T14:37:52.995Z,4.44
2016-12-17T14:39:03.354Z,4.61
2016-12-17T14:40:13.075Z,4.38
2016-12-17T14:41:23.099Z,4.38
2016-12-17T14:42:33.445Z,4.39
2016-12-17T14:43:43.494Z,4.38
2016-12-17T14:44:53.859Z,4.32
2016-12-17T14:46:03.918Z,4.44
2016-12-17T14:47:13.948Z,4.42
2016-12-17T14:48:23.677Z,4.38
2016-12-17T14:49:34.009Z,4.36
2016-12-17T14:50:44.354Z,4.33
2016-12-17T14:51:54.069Z,4.32
2016-12-17T14:53:04.406Z,4.28
2016-12-17T14:54:14.770Z,4.14
2016-12-17T14:55:25.121Z,4.38
2016-12-17T14:56:35.478Z,4.18
2016-12-17T14:57:45.826Z,4.15
2016-12-17T14:58:55.557Z,4.29
2016-12-17T15:00:05.581Z,4.17
2016-12-17T15:01:15.604Z,4.29
2016-12-17T15:02:25.636Z,4.18
2016-12-17T15:03:35.989Z,4.22
2016-12-17T15:04:46.012Z,4.3
2016-12-17T15:05:55.736Z,4.26
2016-12-17T15:07:06.072Z,4.14
2016-12-17T15:08:16.408Z,4.21
2016-12-17T15:09:26.725Z,4.2
2016-12-17T15:10:37.063Z,4.28
2016-12-17T15:11:47.430Z,4.21
2016-12-17T15:12:57.461Z,4.22
2016-12-17T15:14:07.464Z,4.21
2016-12-17T15:15:17.516Z,4.21
2016-12-17T15:16:27.267Z,4.22
2016-12-17T15:17:37.623Z,4.28
2016-12-17T15:18:47.646Z,4.15
2016-12-17T15:19:57.962Z,4.29
2016-12-17T15:21:07.720Z,4.28
2016-12-17T15:22:18.045Z,4.18
2016-12-17T15:23:28.082Z,4.22
2016-12-17T15:24:37.814Z,4.14
2016-12-17T15:25:47.841Z,4.22
2016-12-17T15:26:57.849Z,4.28
2016-12-17T15:28:07.893Z,4.26
2016-12-17T15:29:17.920Z,4.15
2016-12-17T15:30:28.244Z,4.21
2016-12-17T15:31:37.972Z,4.17
2016-12-17T15:32:48.005Z,4.1
2016-12-17T15:33:57.422Z,4.26
2016-12-17T15:35:07.139Z,4.22
2016-12-17T15:36:17.504Z,4.2
2016-12-17T15:37:27.834Z,4.18
2016-12-17T15:38:37.845Z,4.21
2016-12-17T15:39:48.163Z,4.15
2016-12-17T15:40:57.879Z,4.15
2016-12-17T15:42:07.899Z,4.15
2016-12-17T15:43:18.226Z,4.3
2016-12-17T15:44:28.281Z,4.3
2016-12-17T15:45:38.603Z,4.29
2016-12-17T15:46:48.940Z,4.33
2016-12-17T15:47:58.966Z,4.29
2016-12-17T15:49:09.009Z,4.35
2016-12-17T15:50:18.712Z,4.4
2016-12-17T15:51:29.035Z,4.28
2016-12-17T15:52:39.079Z,4.4
2016-12-17T15:53:48.782Z,4.3
2016-12-17T15:54:59.106Z,4.35
2016-12-17T15:56:08.842Z,4.3
2016-12-17T15:57:18.860Z,4.3
2016-12-17T15:58:28.910Z,4.14
2016-12-17T15:59:39.252Z,4.29
2016-12-17T16:00:49.296Z,4.24
2016-12-17T16:01:59.333Z,4.22
2016-12-17T16:03:09.674Z,4.18
2016-12-17T16:04:19.708Z,4.21
2016-12-17T16:05:29.735Z,4.29
2016-12-17T16:06:39.454Z,4.26